sensor_id;sensor_type;location;lat;lon;timestamp;pressure;altitude;pressure_sealevel;temperature;humidity
4528;BME280;62320;51.520;6.818;2023-05-19T00:08:10;102103.38;;;11.24;62.40
4528;BME280;62320;51.520;6.818;2023-05-19T00:18:32;102108.44;;;11.20;62.50
4528;BME280;62320;51.520;6.818;2023-05-19T00:28:55;102115.94;;;11.05;63.64
4528;BME280;62320;51.520;6.818;2023-05-19T00:39:16;102110.03;;;10.68;69.92
4528;BME280;62320;51.520;6.818;2023-05-19T00:49:38;102113.00;;;10.46;71.51
4528;BME280;62320;51.520;6.818;2023-05-19T01:00:02;102109.16;;;10.29;71.61
4528;BME280;62320;51.520;6.818;2023-05-19T01:10:24;102108.84;;;10.16;68.85
4528;BME280;62320;51.520;6.818;2023-05-19T01:20:50;102102.50;;;10.03;71.48
4528;BME280;62320;51.520;6.818;2023-05-19T01:31:14;102102.06;;;9.85;72.88
4528;BME280;62320;51.520;6.818;2023-05-19T01:41:40;102096.53;;;9.70;71.23
4528;BME280;62320;51.520;6.818;2023-05-19T01:52:03;102104.63;;;9.51;74.37
4528;BME280;62320;51.520;6.818;2023-05-19T02:02:39;102107.00;;;9.43;71.53
4528;BME280;62320;51.520;6.818;2023-05-19T02:13:05;102111.13;;;9.35;75.06
4528;BME280;62320;51.520;6.818;2023-05-19T02:23:29;102112.41;;;9.19;72.97
4528;BME280;62320;51.520;6.818;2023-05-19T02:33:51;102104.91;;;9.28;70.88
4528;BME280;62320;51.520;6.818;2023-05-19T02:44:13;102090.91;;;9.20;74.14
4528;BME280;62320;51.520;6.818;2023-05-19T02:54:35;102084.81;;;9.17;70.71
4528;BME280;62320;51.520;6.818;2023-05-19T03:04:57;102080.09;;;9.02;72.66
4528;BME280;62320;51.520;6.818;2023-05-19T03:15:19;102082.97;;;8.82;77.92
4528;BME280;62320;51.520;6.818;2023-05-19T03:25:43;102080.97;;;8.72;75.69
4528;BME280;62320;51.520;6.818;2023-05-19T03:36:05;102081.00;;;8.73;76.50
4528;BME280;62320;51.520;6.818;2023-05-19T03:46:27;102088.63;;;8.70;71.61
4528;BME280;62320;51.520;6.818;2023-05-19T03:56:49;102088.75;;;8.73;72.03
4528;BME280;62320;51.520;6.818;2023-05-19T04:07:11;102089.13;;;8.87;70.40
4528;BME280;62320;51.520;6.818;2023-05-19T04:17:33;102101.94;;;8.84;74.43
4528;BME280;62320;51.520;6.818;2023-05-19T04:27:55;102107.47;;;8.97;72.78
4528;BME280;62320;51.520;6.818;2023-05-19T04:38:18;102101.31;;;9.22;75.40
4528;BME280;62320;51.520;6.818;2023-05-19T04:48:40;102103.63;;;9.46;77.36
4528;BME280;62320;51.520;6.818;2023-05-19T04:59:03;102106.13;;;9.77;69.32
4528;BME280;62320;51.520;6.818;2023-05-19T05:09:25;102109.25;;;9.98;68.75
4528;BME280;62320;51.520;6.818;2023-05-19T05:19:47;102108.00;;;10.15;68.78
4528;BME280;62320;51.520;6.818;2023-05-19T05:30:09;102106.75;;;10.37;70.64
4528;BME280;62320;51.520;6.818;2023-05-19T05:40:31;102109.03;;;10.63;70.72
4528;BME280;62320;51.520;6.818;2023-05-19T05:50:55;102094.66;;;11.19;68.03
4528;BME280;62320;51.520;6.818;2023-05-19T06:01:17;102085.31;;;11.75;69.80
4528;BME280;62320;51.520;6.818;2023-05-19T06:11:39;102088.81;;;12.36;67.33
4528;BME280;62320;51.520;6.818;2023-05-19T06:22:01;102082.53;;;12.84;65.18
4528;BME280;62320;51.520;6.818;2023-05-19T06:32:23;102084.03;;;13.41;65.18
4528;BME280;62320;51.520;6.818;2023-05-19T06:42:44;102081.00;;;13.92;61.54
4528;BME280;62320;51.520;6.818;2023-05-19T06:53:06;102096.13;;;14.49;60.25
4528;BME280;62320;51.520;6.818;2023-05-19T07:03:08;102092.91;;;15.16;59.99
4528;BME280;62320;51.520;6.818;2023-05-19T07:13:10;102088.66;;;15.91;58.65
4528;BME280;62320;51.520;6.818;2023-05-19T07:23:11;102085.19;;;15.72;55.44
4528;BME280;62320;51.520;6.818;2023-05-19T07:33:15;102076.44;;;16.20;59.10
4528;BME280;62320;51.520;6.818;2023-05-19T07:43:32;102077.22;;;16.49;56.92
4528;BME280;62320;51.520;6.818;2023-05-19T07:53:33;102059.63;;;17.01;52.64
4528;BME280;62320;51.520;6.818;2023-05-19T08:03:55;102064.63;;;17.33;53.99
4528;BME280;62320;51.520;6.818;2023-05-19T08:14:18;102066.09;;;17.71;49.43
4528;BME280;62320;51.520;6.818;2023-05-19T08:24:42;102056.03;;;18.19;48.35
4528;BME280;62320;51.520;6.818;2023-05-19T08:35:05;102054.28;;;18.19;47.35
4528;BME280;62320;51.520;6.818;2023-05-19T08:45:28;102045.25;;;18.44;47.58
4528;BME280;62320;51.520;6.818;2023-05-19T09:06:16;102020.63;;;18.61;43.93
4528;BME280;62320;51.520;6.818;2023-05-19T09:16:37;102014.78;;;19.04;46.32
4528;BME280;62320;51.520;6.818;2023-05-19T09:26:59;102012.59;;;19.32;45.60
4528;BME280;62320;51.520;6.818;2023-05-19T09:37:23;102004.78;;;18.70;41.65
4528;BME280;62320;51.520;6.818;2023-05-19T09:47:25;101983.25;;;19.09;46.19
4528;BME280;62320;51.520;6.818;2023-05-19T09:57:33;101982.19;;;18.63;46.91
4528;BME280;62320;51.520;6.818;2023-05-19T10:07:38;101978.75;;;18.59;46.01
4528;BME280;62320;51.520;6.818;2023-05-19T10:17:42;101963.25;;;18.39;44.22
4528;BME280;62320;51.520;6.818;2023-05-19T10:27:56;101964.16;;;18.35;47.03
4528;BME280;62320;51.520;6.818;2023-05-19T10:38:10;101962.34;;;18.46;45.58
4528;BME280;62320;51.520;6.818;2023-05-19T10:48:14;101963.78;;;17.97;44.23
4528;BME280;62320;51.520;6.818;2023-05-19T11:08:40;101950.63;;;18.03;45.38
4528;BME280;62320;51.520;6.818;2023-05-19T11:19:04;101936.56;;;18.12;45.52
4528;BME280;62320;51.520;6.818;2023-05-19T11:29:26;101936.41;;;18.22;47.03
4528;BME280;62320;51.520;6.818;2023-05-19T11:39:48;101928.59;;;18.21;46.33
4528;BME280;62320;51.520;6.818;2023-05-19T11:50:10;101923.22;;;18.30;43.79
4528;BME280;62320;51.520;6.818;2023-05-19T12:00:36;101917.22;;;18.23;45.76
4528;BME280;62320;51.520;6.818;2023-05-19T12:10:59;101904.88;;;18.31;44.56
4528;BME280;62320;51.520;6.818;2023-05-19T12:21:21;101890.78;;;18.40;44.92
4528;BME280;62320;51.520;6.818;2023-05-19T12:31:45;101879.28;;;18.51;45.53
4528;BME280;62320;51.520;6.818;2023-05-19T12:42:09;101881.00;;;18.56;46.10
4528;BME280;62320;51.520;6.818;2023-05-19T12:52:33;101861.38;;;18.79;42.27
4528;BME280;62320;51.520;6.818;2023-05-19T13:03:03;101853.44;;;18.85;41.83
4528;BME280;62320;51.520;6.818;2023-05-19T13:13:26;101854.25;;;18.89;42.06
4528;BME280;62320;51.520;6.818;2023-05-19T13:23:48;101840.25;;;18.88;43.87
4528;BME280;62320;51.520;6.818;2023-05-19T13:34:10;101843.75;;;18.89;44.88
4528;BME280;62320;51.520;6.818;2023-05-19T13:44:32;101830.34;;;19.07;44.30
4528;BME280;62320;51.520;6.818;2023-05-19T13:54:54;101819.81;;;19.08;40.99
4528;BME280;62320;51.520;6.818;2023-05-19T14:05:17;101827.75;;;19.04;40.46
4528;BME280;62320;51.520;6.818;2023-05-19T14:15:39;101814.25;;;19.25;40.95
4528;BME280;62320;51.520;6.818;2023-05-19T14:26:01;101814.63;;;19.05;43.45
4528;BME280;62320;51.520;6.818;2023-05-19T14:36:23;101818.63;;;19.24;41.97
4528;BME280;62320;51.520;6.818;2023-05-19T14:46:45;101815.09;;;19.27;41.30
4528;BME280;62320;51.520;6.818;2023-05-19T14:57:07;101812.50;;;19.26;43.25
4528;BME280;62320;51.520;6.818;2023-05-19T15:07:09;101793.31;;;19.23;43.97
4528;BME280;62320;51.520;6.818;2023-05-19T15:17:11;101799.06;;;19.44;42.21
4528;BME280;62320;51.520;6.818;2023-05-19T15:27:34;101796.59;;;19.35;43.33
4528;BME280;62320;51.520;6.818;2023-05-19T15:37:36;101779.72;;;19.48;42.55
4528;BME280;62320;51.520;6.818;2023-05-19T15:47:38;101785.88;;;19.47;43.33
4528;BME280;62320;51.520;6.818;2023-05-19T15:57:40;101777.25;;;19.40;42.73
4528;BME280;62320;51.520;6.818;2023-05-19T16:07:41;101770.81;;;19.56;43.31
4528;BME280;62320;51.520;6.818;2023-05-19T16:17:43;101763.22;;;19.44;42.50
4528;BME280;62320;51.520;6.818;2023-05-19T16:27:45;101774.69;;;19.39;39.86
4528;BME280;62320;51.520;6.818;2023-05-19T16:37:46;101749.38;;;19.36;42.62
4528;BME280;62320;51.520;6.818;2023-05-19T16:47:48;101751.25;;;19.28;42.85
4528;BME280;62320;51.520;6.818;2023-05-19T16:58:10;101762.81;;;19.18;41.24
4528;BME280;62320;51.520;6.818;2023-05-19T17:08:32;101747.88;;;19.23;41.56
4528;BME280;62320;51.520;6.818;2023-05-19T17:18:54;101748.19;;;19.08;40.79
4528;BME280;62320;51.520;6.818;2023-05-19T17:29:16;101751.81;;;19.01;41.34
4528;BME280;62320;51.520;6.818;2023-05-19T17:39:18;101756.31;;;18.94;40.96
4528;BME280;62320;51.520;6.818;2023-05-19T17:49:20;101759.06;;;18.87;41.63
4528;BME280;62320;51.520;6.818;2023-05-19T17:59:23;101747.78;;;18.82;41.44
4528;BME280;62320;51.520;6.818;2023-05-19T18:09:25;101765.41;;;18.74;41.74
4528;BME280;62320;51.520;6.818;2023-05-19T18:19:29;101755.97;;;18.64;44.03
4528;BME280;62320;51.520;6.818;2023-05-19T18:29:32;101760.56;;;18.51;43.69
4528;BME280;62320;51.520;6.818;2023-05-19T18:39:34;101783.34;;;18.43;45.06
4528;BME280;62320;51.520;6.818;2023-05-19T18:49:57;101777.44;;;18.32;44.46
4528;BME280;62320;51.520;6.818;2023-05-19T19:00:19;101782.97;;;18.11;44.56
4528;BME280;62320;51.520;6.818;2023-05-19T19:10:41;101784.09;;;17.95;43.54
4528;BME280;62320;51.520;6.818;2023-05-19T19:21:03;101790.44;;;17.77;46.14
4528;BME280;62320;51.520;6.818;2023-05-19T19:31:26;101803.69;;;17.65;45.17
4528;BME280;62320;51.520;6.818;2023-05-19T19:41:51;101816.25;;;17.31;45.35
4528;BME280;62320;51.520;6.818;2023-05-19T19:51:52;101829.34;;;17.30;47.11
4528;BME280;62320;51.520;6.818;2023-05-19T20:02:14;101820.94;;;16.97;47.61
4528;BME280;62320;51.520;6.818;2023-05-19T20:12:36;101840.25;;;16.83;47.53
4528;BME280;62320;51.520;6.818;2023-05-19T20:22:38;101839.56;;;16.63;48.10
4528;BME280;62320;51.520;6.818;2023-05-19T20:32:40;101835.34;;;16.39;49.07
4528;BME280;62320;51.520;6.818;2023-05-19T20:42:42;101839.84;;;16.14;49.55
4528;BME280;62320;51.520;6.818;2023-05-19T20:52:43;101849.53;;;15.88;50.69
4528;BME280;62320;51.520;6.818;2023-05-19T21:02:45;101857.31;;;16.00;49.80
4528;BME280;62320;51.520;6.818;2023-05-19T21:12:46;101845.22;;;15.80;50.42
4528;BME280;62320;51.520;6.818;2023-05-19T21:22:48;101853.16;;;15.39;51.79
4528;BME280;62320;51.520;6.818;2023-05-19T21:32:49;101849.66;;;15.43;51.73
4528;BME280;62320;51.520;6.818;2023-05-19T21:42:51;101838.41;;;15.20;53.42
4528;BME280;62320;51.520;6.818;2023-05-19T21:52:53;101845.38;;;15.09;53.24
4528;BME280;62320;51.520;6.818;2023-05-19T22:03:15;101854.94;;;15.20;53.11
4528;BME280;62320;51.520;6.818;2023-05-19T22:13:37;101855.84;;;14.80;55.48
4528;BME280;62320;51.520;6.818;2023-05-19T22:24:01;101853.22;;;14.77;54.23
4528;BME280;62320;51.520;6.818;2023-05-19T22:34:23;101849.75;;;14.97;53.66
4528;BME280;62320;51.520;6.818;2023-05-19T22:44:45;101855.81;;;14.72;55.25
4528;BME280;62320;51.520;6.818;2023-05-19T22:55:07;101849.78;;;14.63;54.23
4528;BME280;62320;51.520;6.818;2023-05-19T23:05:29;101835.00;;;14.47;56.07
4528;BME280;62320;51.520;6.818;2023-05-19T23:15:51;101836.72;;;14.37;56.46
4528;BME280;62320;51.520;6.818;2023-05-19T23:26:13;101848.78;;;14.27;55.85
4528;BME280;62320;51.520;6.818;2023-05-19T23:36:35;101837.44;;;13.88;57.27
4528;BME280;62320;51.520;6.818;2023-05-19T23:46:57;101833.94;;;13.83;56.30
4528;BME280;62320;51.520;6.818;2023-05-19T23:57:19;101837.34;;;13.71;57.21
